createdAt,value
2022-07-25T08:29:58.671Z,100366.00
2022-07-25T08:32:25.314Z,100369.38
2022-07-25T08:34:52.136Z,100358.09
2022-07-25T08:37:18.802Z,100360.97
2022-07-25T08:39:45.509Z,100358.59
2022-07-25T08:42:12.169Z,100354.19
2022-07-25T08:44:41.322Z,100350.47
2022-07-25T08:47:09.615Z,100349.84
2022-07-25T08:49:38.094Z,100342.94
2022-07-25T08:52:05.263Z,100338.81
2022-07-25T08:54:31.952Z,100345.34
2022-07-25T08:56:58.603Z,100338.47
2022-07-25T08:59:25.240Z,100332.28
2022-07-25T09:01:52.283Z,100333.63
2022-07-25T09:04:19.496Z,100326.84
2022-07-25T09:06:50.535Z,100323.72
2022-07-25T09:09:17.746Z,100316.25
2022-07-25T09:11:44.389Z,100310.22
2022-07-25T09:14:14.902Z,100311.72
2022-07-25T09:16:44.848Z,100305.19
2022-07-25T09:19:17.196Z,100309.84
2022-07-25T09:21:46.024Z,100297.97
2022-07-25T09:24:16.046Z,100296.91
2022-07-25T09:26:48.213Z,100301.81
2022-07-25T09:29:25.791Z,100297.84
2022-07-25T09:31:53.862Z,100290.19
2022-07-25T09:34:36.501Z,100285.91
2022-07-25T09:37:08.354Z,100277.97
2022-07-25T09:39:47.307Z,100273.19
2022-07-25T09:42:36.250Z,100279.69
2022-07-25T09:45:15.312Z,100273.22
2022-07-25T09:47:57.448Z,100273.47
2022-07-25T09:50:26.157Z,100258.63
2022-07-25T09:52:54.873Z,100254.31
2022-07-25T09:55:22.050Z,100246.72
2022-07-25T09:57:52.509Z,100249.69
2022-07-25T10:00:24.596Z,100245.69
2022-07-25T10:02:55.013Z,100242.66
2022-07-25T10:05:47.092Z,100234.34
2022-07-25T10:08:14.545Z,100239.09
2022-07-25T10:10:42.136Z,100231.25
2022-07-25T10:13:11.510Z,100235.44
2022-07-25T10:15:46.396Z,100224.91
2022-07-25T10:18:14.393Z,100219.63
2022-07-25T10:20:41.704Z,100213.28
2022-07-25T10:23:19.468Z,100217.50
2022-07-25T10:25:49.174Z,100193.34
2022-07-25T10:28:19.107Z,100202.28
2022-07-25T10:30:46.160Z,100188.91
2022-07-25T10:33:19.198Z,100182.72
2022-07-25T10:35:46.182Z,100188.47
2022-07-25T10:38:13.154Z,100186.59
2022-07-25T10:40:45.045Z,100191.91
2022-07-25T10:43:19.077Z,100183.00
2022-07-25T10:45:58.562Z,100179.63
2022-07-25T10:48:25.242Z,100159.03
2022-07-25T10:51:18.444Z,100174.78
2022-07-25T10:53:44.990Z,100167.38
2022-07-25T10:56:25.013Z,100161.84
2022-07-25T10:58:54.075Z,100142.75
2022-07-25T11:01:23.338Z,100153.81
2022-07-25T11:03:52.547Z,100144.91
2022-07-25T11:06:39.706Z,100141.50
2022-07-25T11:09:22.682Z,100140.78
2022-07-25T11:11:57.823Z,100138.13
2022-07-25T11:14:35.236Z,100132.56
2022-07-25T11:17:19.775Z,100133.56
2022-07-25T11:20:06.197Z,100127.72
2022-07-25T11:22:33.356Z,100119.91
2022-07-25T11:25:00.988Z,100118.56
2022-07-25T11:27:30.569Z,100113.25
2022-07-25T11:30:20.748Z,100119.84
2022-07-25T11:32:59.293Z,100105.72
2022-07-25T11:35:31.834Z,100110.91
2022-07-25T11:37:59.944Z,100095.00
2022-07-25T11:40:26.565Z,100114.25
2022-07-25T11:42:59.346Z,100091.88
2022-07-25T11:45:30.063Z,100093.97
2022-07-25T11:48:10.805Z,100080.16
2022-07-25T11:50:38.996Z,100083.31
2022-07-25T11:53:07.384Z,100082.03
2022-07-25T11:55:42.844Z,100080.59
2022-07-25T11:58:10.931Z,100073.47
2022-07-25T12:00:45.521Z,100064.94
2022-07-25T12:03:18.983Z,100059.44
2022-07-25T12:05:47.289Z,100049.97
2022-07-25T12:08:19.347Z,100045.34
2022-07-25T12:10:47.725Z,100041.41
2022-07-25T12:13:28.710Z,100045.97
2022-07-25T12:15:59.589Z,100049.66
2022-07-25T12:18:26.564Z,100037.53
2022-07-25T12:20:53.426Z,100042.84
2022-07-25T12:23:21.738Z,100045.63
2022-07-25T12:25:48.580Z,100019.84
2022-07-25T12:28:15.328Z,100009.63
2022-07-25T12:30:43.599Z,100009.78
2022-07-25T12:33:11.255Z,100022.34
2022-07-25T12:35:39.967Z,100018.09
2022-07-25T12:38:07.006Z,100003.19
2022-07-25T12:40:33.846Z,100013.56
2022-07-25T12:43:01.086Z,100005.78
2022-07-25T12:45:28.044Z,99998.66
2022-07-25T12:47:55.022Z,100012.22
2022-07-25T12:50:21.728Z,100000.34
2022-07-25T12:52:48.456Z,99996.34
2022-07-25T12:55:18.379Z,100006.06
2022-07-25T12:57:46.217Z,99999.56
2022-07-25T13:00:15.629Z,99989.16
2022-07-25T13:02:46.505Z,99991.50
2022-07-25T13:05:15.208Z,99987.91
2022-07-25T13:07:42.781Z,99996.59
2022-07-25T13:10:10.274Z,99991.13
2022-07-25T13:12:36.930Z,99978.00
2022-07-25T13:15:04.181Z,99988.59
2022-07-25T13:17:32.085Z,99985.41
2022-07-25T13:19:59.124Z,99981.94
2022-07-25T13:22:25.824Z,99974.91
2022-07-25T13:25:03.793Z,99965.88
2022-07-25T13:27:33.448Z,99959.94
2022-07-25T13:30:00.206Z,99962.91
2022-07-25T13:32:28.434Z,99951.06
2022-07-25T13:34:55.600Z,99960.81
2022-07-25T13:37:22.295Z,99959.81
2022-07-25T13:39:49.288Z,99943.97
2022-07-25T13:42:15.990Z,99940.06
2022-07-25T13:44:42.780Z,99940.88
2022-07-25T13:47:09.415Z,99945.44
2022-07-25T13:49:37.121Z,99940.56
2022-07-25T13:52:07.095Z,99939.38
2022-07-25T13:54:33.826Z,99936.19
2022-07-25T13:57:03.038Z,99935.06
2022-07-25T13:59:30.175Z,99933.50
2022-07-25T14:01:57.088Z,99917.22
2022-07-25T14:04:23.979Z,99906.63
2022-07-25T14:06:52.283Z,99916.38
2022-07-25T14:09:23.338Z,99919.34
2022-07-25T14:11:50.072Z,99901.63
2022-07-25T14:14:17.400Z,99903.75
2022-07-25T14:16:44.362Z,99905.47
2022-07-25T14:19:11.205Z,99898.50
2022-07-25T14:21:38.033Z,99902.53
2022-07-25T14:24:05.469Z,99897.88
2022-07-25T14:26:33.975Z,99885.66
2022-07-25T14:29:00.713Z,99886.91
2022-07-25T14:31:27.725Z,99878.84
2022-07-25T14:33:54.584Z,99875.03
2022-07-25T14:36:21.352Z,99876.50
2022-07-25T14:38:48.427Z,99878.84
2022-07-25T14:41:15.503Z,99878.22
2022-07-25T14:43:42.455Z,99876.75
2022-07-25T14:46:09.929Z,99872.06
2022-07-25T14:48:37.734Z,99884.75
2022-07-25T14:51:05.581Z,99869.47
2022-07-25T14:53:32.593Z,99870.50
2022-07-25T14:56:00.842Z,99867.50
2022-07-25T14:58:27.582Z,99863.47
2022-07-25T15:00:54.335Z,99855.25
2022-07-25T15:03:21.214Z,99847.22
2022-07-25T15:05:47.991Z,99849.09
2022-07-25T15:08:14.654Z,99835.75
2022-07-25T15:10:41.472Z,99828.28
2022-07-25T15:13:29.857Z,99819.50
2022-07-25T15:15:56.220Z,99820.09
2022-07-25T15:18:22.991Z,99810.31
2022-07-25T15:20:51.807Z,99804.25
2022-07-25T15:23:18.762Z,99798.47
2022-07-25T15:26:03.955Z,99783.50
2022-07-25T15:28:32.925Z,99783.53
2022-07-25T15:30:59.654Z,99782.91
2022-07-25T15:33:26.608Z,99785.75
2022-07-25T15:35:53.405Z,99773.31
2022-07-25T15:38:20.044Z,99784.53
2022-07-25T15:40:47.130Z,99770.22
2022-07-25T15:43:13.963Z,99762.22
2022-07-25T15:45:42.486Z,99758.66
2022-07-25T15:48:12.193Z,99758.06
2022-07-25T15:50:42.991Z,99753.56
2022-07-25T15:53:10.568Z,99745.97
2022-07-25T15:55:38.404Z,99747.16
2022-07-25T15:58:06.067Z,99738.66
2022-07-25T16:00:33.758Z,99739.03
2022-07-25T16:03:00.616Z,99726.75
2022-07-25T16:05:27.408Z,99731.50
2022-07-25T16:07:54.221Z,99732.06
2022-07-25T16:10:20.868Z,99737.69
2022-07-25T16:12:47.633Z,99738.31
2022-07-25T16:15:14.361Z,99736.75
2022-07-25T16:17:41.035Z,99729.13
2022-07-25T16:20:09.334Z,99717.56
2022-07-25T16:22:36.123Z,99716.47
2022-07-25T16:25:03.229Z,99722.94
2022-07-25T16:27:30.236Z,99718.75
2022-07-25T16:29:57.038Z,99701.03
2022-07-25T16:32:23.988Z,99702.03
2022-07-25T16:34:50.628Z,99706.59
2022-07-25T16:37:17.323Z,99701.13
2022-07-25T16:39:43.981Z,99702.28
2022-07-25T16:42:10.613Z,99711.25
2022-07-25T16:44:37.233Z,99708.88
2022-07-25T16:47:03.907Z,99726.06
2022-07-25T16:49:30.764Z,99748.34
2022-07-25T16:51:57.391Z,99786.91
2022-07-25T16:54:24.019Z,99832.50
2022-07-25T16:56:53.705Z,99850.56
2022-07-25T16:59:22.451Z,99887.13
2022-07-25T17:01:49.170Z,99921.81
2022-07-25T17:04:15.885Z,99923.50
2022-07-25T17:06:42.604Z,99902.59
2022-07-25T17:09:09.827Z,99860.56
2022-07-25T17:11:36.671Z,99866.31
2022-07-25T17:14:04.461Z,99860.41
2022-07-25T17:16:32.137Z,99848.59
2022-07-25T17:18:58.836Z,99841.97
2022-07-25T17:21:25.633Z,99837.53
2022-07-25T17:23:53.292Z,99830.13
2022-07-25T17:26:20.587Z,99820.63
2022-07-25T17:28:48.071Z,99817.63
2022-07-25T17:31:14.997Z,99811.72
2022-07-25T17:33:41.773Z,99807.38
2022-07-25T17:36:08.741Z,99796.53
2022-07-25T17:38:37.185Z,99798.22
2022-07-25T17:41:04.877Z,99802.47
2022-07-25T17:43:31.577Z,99800.50
2022-07-25T17:45:58.290Z,99794.00
2022-07-25T17:48:24.931Z,99798.56
2022-07-25T17:50:52.479Z,99797.97
2022-07-25T17:53:19.190Z,99804.38
2022-07-25T17:55:45.905Z,99796.88
2022-07-25T17:58:12.505Z,99796.03
2022-07-25T18:00:39.227Z,99811.63
2022-07-25T18:03:06.583Z,99802.25
2022-07-25T18:05:33.434Z,99803.19
2022-07-25T18:08:00.156Z,99811.41
2022-07-25T18:10:26.848Z,99813.97
2022-07-25T18:12:53.459Z,99824.03
2022-07-25T18:15:20.274Z,99823.59
2022-07-25T18:17:47.611Z,99841.16
2022-07-25T18:20:15.462Z,99838.97
2022-07-25T18:22:42.207Z,99836.22
2022-07-25T18:25:11.467Z,99847.69
2022-07-25T18:27:44.609Z,99849.38
2022-07-25T18:30:12.311Z,99857.75
2022-07-25T18:32:40.386Z,99866.69
2022-07-25T18:35:07.971Z,99867.81
2022-07-25T18:37:38.118Z,99869.38
2022-07-25T18:40:08.397Z,99871.03
2022-07-25T18:42:36.216Z,99867.28
2022-07-25T18:45:04.872Z,99875.72
2022-07-25T18:47:34.796Z,99874.53
2022-07-25T18:50:02.138Z,99872.13
2022-07-25T18:52:35.038Z,99880.97
2022-07-25T18:55:06.932Z,99868.47
2022-07-25T18:57:33.597Z,99866.19
2022-07-25T19:00:03.241Z,99863.88
2022-07-25T19:02:30.537Z,99860.13
2022-07-25T19:04:57.286Z,99864.06
2022-07-25T19:07:24.057Z,99862.97
2022-07-25T19:09:50.696Z,99860.91
2022-07-25T19:12:17.551Z,99866.19
2022-07-25T19:14:44.349Z,99869.25
2022-07-25T19:17:11.021Z,99859.88
2022-07-25T19:19:37.844Z,99870.13
2022-07-25T19:22:18.603Z,99868.28
2022-07-25T19:24:47.590Z,99898.97
2022-07-25T19:27:30.096Z,99913.78
2022-07-25T19:29:59.797Z,99943.59
2022-07-25T19:32:33.385Z,99986.53
2022-07-25T19:35:16.920Z,99984.06
2022-07-25T19:37:56.563Z,99972.94
2022-07-25T19:40:29.548Z,99988.44
2022-07-25T19:42:58.843Z,99975.50
2022-07-25T19:45:41.482Z,99977.69
2022-07-25T19:48:11.984Z,99987.94
2022-07-25T19:50:46.100Z,100000.38
2022-07-25T19:53:24.276Z,100007.72
2022-07-25T19:55:58.495Z,100016.53
2022-07-25T19:58:26.323Z,100010.66
2022-07-25T20:00:53.132Z,100004.69
2022-07-25T20:03:23.415Z,100011.28
2022-07-25T20:05:50.505Z,100019.22
2022-07-25T20:08:17.920Z,100028.50
2022-07-25T20:10:44.721Z,100032.75
2022-07-25T20:13:11.366Z,100038.19
2022-07-25T20:15:38.099Z,100063.19
2022-07-25T20:18:04.929Z,100060.50
2022-07-25T20:20:31.719Z,100072.97
2022-07-25T20:22:58.431Z,100091.38
2022-07-25T20:25:25.167Z,100086.16
2022-07-25T20:27:51.874Z,100080.69
2022-07-25T20:30:19.113Z,100084.16
2022-07-25T20:32:45.785Z,100089.41
2022-07-25T20:35:12.446Z,100078.84
2022-07-25T20:37:39.215Z,100072.53
2022-07-25T20:40:07.060Z,100068.47
2022-07-25T20:42:37.487Z,100069.88
2022-07-25T20:45:08.123Z,100091.34
2022-07-25T20:47:34.798Z,100099.72
2022-07-25T20:50:01.699Z,100098.03
2022-07-25T20:52:30.214Z,100101.31
2022-07-25T20:54:56.943Z,100111.16
2022-07-25T20:57:23.599Z,100117.72
2022-07-25T20:59:50.206Z,100125.31
2022-07-25T21:02:17.489Z,100129.72
2022-07-25T21:04:44.967Z,100127.47
2022-07-25T21:07:14.114Z,100117.63
2022-07-25T21:09:40.876Z,100122.00
2022-07-25T21:12:07.995Z,100115.97
2022-07-25T21:14:34.714Z,100138.50
2022-07-25T21:17:01.526Z,100138.06
2022-07-25T21:19:28.290Z,100148.69
2022-07-25T21:21:55.018Z,100159.63
2022-07-25T21:24:21.754Z,100164.66
2022-07-25T21:26:48.463Z,100165.41
2022-07-25T21:29:15.094Z,100177.94
2022-07-25T21:31:42.426Z,100189.97
2022-07-25T21:34:09.179Z,100202.94
2022-07-25T21:36:38.844Z,100204.34
2022-07-25T21:39:05.823Z,100202.84
2022-07-25T21:41:32.669Z,100210.28
2022-07-25T21:43:59.305Z,100200.94
2022-07-25T21:46:26.360Z,100194.38
2022-07-25T21:49:14.488Z,100190.09
2022-07-25T21:51:41.333Z,100176.22
2022-07-25T21:54:09.699Z,100174.72
2022-07-25T21:56:36.439Z,100181.81
2022-07-25T21:59:03.826Z,100177.72
2022-07-25T22:01:30.660Z,100184.03
2022-07-25T22:03:57.494Z,100186.94
2022-07-25T22:06:24.373Z,100183.03
2022-07-25T22:08:51.258Z,100174.22
2022-07-25T22:11:39.107Z,100175.94
2022-07-25T22:14:05.077Z,100176.16
2022-07-25T22:16:31.792Z,100172.03
2022-07-25T22:18:59.753Z,100192.09
2022-07-25T22:21:26.562Z,100206.22
2022-07-25T22:23:53.408Z,100227.56
2022-07-25T22:26:20.383Z,100238.97
2022-07-25T22:28:47.709Z,100272.53
2022-07-25T22:31:15.128Z,100277.72
2022-07-25T22:33:41.932Z,100223.44
2022-07-25T22:36:10.269Z,100185.56
2022-07-25T22:38:36.935Z,100182.25
2022-07-25T22:41:03.640Z,100157.44
2022-07-25T22:43:58.032Z,100172.16
2022-07-25T22:46:17.670Z,100167.84
2022-07-25T22:48:44.630Z,100182.38
2022-07-25T22:51:11.937Z,100206.97
2022-07-25T22:53:38.577Z,100230.38
2022-07-25T22:56:05.763Z,100246.44
2022-07-25T22:58:32.507Z,100257.06
2022-07-25T23:00:59.158Z,100271.28
2022-07-25T23:03:26.059Z,100289.13
2022-07-25T23:05:58.294Z,100262.13
2022-07-25T23:08:25.191Z,100262.41
2022-07-25T23:10:51.998Z,100236.13
2022-07-25T23:13:18.920Z,100226.16
2022-07-25T23:15:50.029Z,100231.94
2022-07-25T23:18:18.442Z,100236.50
2022-07-25T23:20:45.208Z,100251.69
2022-07-25T23:23:11.830Z,100249.03
2022-07-25T23:25:38.448Z,100225.97
2022-07-25T23:28:05.270Z,100230.69
2022-07-25T23:30:36.566Z,100240.53
2022-07-25T23:33:07.000Z,100242.91
2022-07-25T23:35:33.800Z,100237.00
2022-07-25T23:38:00.844Z,100229.72
2022-07-25T23:40:27.576Z,100232.31
2022-07-25T23:42:54.515Z,100233.47
2022-07-25T23:45:22.125Z,100229.91
2022-07-25T23:47:52.417Z,100230.94
2022-07-25T23:50:19.874Z,100235.75
2022-07-25T23:52:46.835Z,100241.38
2022-07-25T23:55:13.986Z,100235.25
2022-07-25T23:57:40.764Z,100235.53
